createdAt,value
2023-05-08T00:02:46.612Z,1.05
2023-05-08T00:05:48.318Z,0.98
2023-05-08T00:08:51.457Z,0.98
2023-05-08T00:11:53.360Z,0.90
2023-05-08T00:14:55.265Z,0.98
2023-05-08T00:17:57.238Z,1.00
2023-05-08T00:20:59.178Z,1.20
2023-05-08T00:24:02.398Z,0.82
2023-05-08T00:27:04.300Z,0.93
2023-05-08T00:30:07.724Z,1.10
2023-05-08T00:33:09.833Z,0.75
2023-05-08T00:36:13.999Z,0.88
2023-05-08T00:39:17.531Z,1.02
2023-05-08T00:42:19.473Z,1.10
2023-05-08T00:45:21.253Z,1.00
2023-05-08T00:48:24.545Z,1.40
2023-05-08T00:51:27.791Z,1.13
2023-05-08T00:54:33.327Z,1.00
2023-05-08T00:57:36.009Z,0.98
2023-05-08T01:00:42.150Z,1.13
2023-05-08T01:03:47.431Z,1.20
2023-05-08T01:06:49.610Z,1.38
2023-05-08T01:09:52.753Z,1.20
2023-05-08T01:13:04.900Z,1.20
2023-05-08T01:16:14.386Z,1.40
2023-05-08T01:19:52.756Z,1.25
2023-05-08T01:23:15.252Z,1.42
2023-05-08T01:26:51.793Z,1.30
2023-05-08T01:30:24.874Z,1.40
2023-05-08T01:33:36.145Z,1.30
2023-05-08T01:36:46.296Z,1.80
2023-05-08T01:39:55.730Z,1.58
2023-05-08T01:43:08.274Z,1.40
2023-05-08T01:46:14.817Z,1.50
2023-05-08T01:49:24.197Z,1.73
2023-05-08T01:52:31.928Z,1.55
2023-05-08T01:55:37.269Z,1.60
2023-05-08T01:58:41.769Z,1.42
2023-05-08T02:01:46.249Z,1.80
2023-05-08T02:04:52.405Z,2.00
2023-05-08T02:07:55.305Z,1.65
2023-05-08T02:10:59.148Z,1.75
2023-05-08T02:14:02.822Z,1.80
2023-05-08T02:17:07.249Z,1.35
2023-05-08T02:20:15.001Z,1.80
2023-05-08T02:23:18.685Z,1.98
2023-05-08T02:26:22.339Z,1.73
2023-05-08T02:29:25.191Z,1.75
2023-05-08T02:32:27.671Z,1.48
2023-05-08T02:35:32.258Z,1.60
2023-05-08T02:38:37.739Z,1.77
2023-05-08T02:41:41.808Z,1.70
2023-05-08T02:44:43.738Z,1.80
2023-05-08T02:47:52.059Z,1.63
2023-05-08T02:51:00.524Z,1.88
2023-05-08T02:54:10.135Z,1.73
2023-05-08T02:57:21.648Z,1.67
2023-05-08T03:00:29.010Z,1.83
2023-05-08T03:03:37.964Z,2.00
2023-05-08T03:06:45.676Z,1.80
2023-05-08T03:09:50.782Z,1.63
2023-05-08T03:12:55.352Z,1.98
2023-05-08T03:16:02.120Z,1.63
2023-05-08T03:19:07.415Z,1.65
2023-05-08T03:22:11.753Z,2.15
2023-05-08T03:25:16.733Z,2.15
2023-05-08T03:28:21.471Z,2.08
2023-05-08T03:31:25.614Z,2.05
2023-05-08T03:34:29.752Z,1.98
2023-05-08T03:37:33.454Z,1.73
2023-05-08T03:40:44.541Z,2.55
2023-05-08T03:43:47.256Z,2.33
2023-05-08T03:46:51.063Z,1.95
2023-05-08T03:52:58.286Z,1.83
2023-05-08T03:56:01.894Z,2.30
2023-05-08T03:59:10.554Z,2.05
2023-05-08T04:02:22.022Z,2.10
2023-05-08T04:05:28.539Z,2.10
2023-05-08T04:08:39.085Z,2.33
2023-05-08T04:11:44.297Z,2.38
2023-05-08T04:14:55.576Z,2.28
2023-05-08T04:18:02.561Z,2.28
2023-05-08T04:21:06.928Z,2.28
2023-05-08T04:24:14.966Z,2.13
2023-05-08T04:27:19.146Z,2.17
2023-05-08T04:30:21.324Z,2.30
2023-05-08T04:33:25.083Z,2.15
2023-05-08T04:36:29.447Z,2.10
2023-05-08T04:39:33.896Z,2.20
2023-05-08T04:42:36.863Z,2.28
2023-05-08T04:45:39.551Z,2.40
2023-05-08T04:48:41.407Z,3.15
2023-05-08T04:51:43.369Z,2.22
2023-05-08T04:54:46.802Z,2.08
2023-05-08T04:57:48.646Z,2.00
2023-05-08T05:00:50.828Z,1.98
2023-05-08T05:03:52.976Z,2.10
2023-05-08T05:06:55.079Z,2.22
2023-05-08T05:10:00.066Z,2.35
2023-05-08T05:13:02.522Z,2.20
2023-05-08T05:16:05.004Z,2.55
2023-05-08T05:19:07.131Z,2.58
2023-05-08T05:22:09.546Z,2.40
2023-05-08T05:25:13.371Z,2.03
2023-05-08T05:28:15.588Z,2.28
2023-05-08T05:31:17.690Z,2.28
2023-05-08T05:34:19.762Z,2.03
2023-05-08T05:37:21.543Z,2.00
2023-05-08T05:40:25.506Z,2.05
2023-05-08T05:43:28.235Z,2.42
2023-05-08T05:46:32.726Z,2.50
2023-05-08T05:49:37.547Z,2.13
2023-05-08T05:52:39.457Z,2.80
2023-05-08T05:55:42.658Z,2.45
2023-05-08T05:58:45.452Z,2.75
2023-05-08T06:01:47.764Z,3.00
2023-05-08T06:04:51.310Z,3.00
2023-05-08T06:07:53.102Z,3.50
2023-05-08T06:10:56.713Z,3.42
2023-05-08T06:13:58.514Z,3.45
2023-05-08T06:17:00.599Z,3.15
2023-05-08T06:20:02.538Z,3.08
2023-05-08T06:23:04.417Z,2.55
2023-05-08T06:26:07.491Z,3.13
2023-05-08T06:29:09.304Z,3.20
2023-05-08T06:32:11.122Z,2.95
2023-05-08T06:35:13.421Z,2.80
2023-05-08T06:38:16.392Z,2.60
2023-05-08T06:41:19.578Z,2.40
2023-05-08T06:44:21.471Z,2.83
2023-05-08T06:47:23.281Z,2.45
2023-05-08T06:50:25.109Z,2.67
2023-05-08T06:53:26.805Z,2.88
2023-05-08T06:56:29.824Z,2.75
2023-05-08T06:59:32.124Z,2.80
2023-05-08T07:02:33.969Z,2.55
2023-05-08T07:05:35.898Z,2.30
2023-05-08T07:08:37.802Z,2.72
2023-05-08T07:11:40.937Z,2.70
2023-05-08T07:14:43.201Z,2.45
2023-05-08T07:17:45.087Z,2.60
2023-05-08T07:20:47.134Z,2.72
2023-05-08T07:23:51.552Z,2.70
2023-05-08T07:26:54.883Z,2.67
2023-05-08T07:29:58.411Z,3.08
2023-05-08T07:33:00.184Z,2.45
2023-05-08T07:36:01.983Z,2.63
2023-05-08T07:39:04.742Z,2.60
2023-05-08T07:42:07.891Z,2.78
2023-05-08T07:45:12.001Z,2.80
2023-05-08T07:48:33.836Z,2.63
2023-05-08T07:51:35.535Z,3.00
2023-05-08T07:54:37.981Z,2.45
2023-05-08T07:57:42.765Z,2.60
2023-05-08T08:00:44.892Z,2.83
2023-05-08T08:03:47.015Z,2.50
2023-05-08T08:06:48.799Z,3.08
2023-05-08T08:09:50.633Z,3.00
2023-05-08T08:12:54.027Z,3.20
2023-05-08T08:15:57.109Z,2.88
2023-05-08T08:18:59.592Z,2.53
2023-05-08T08:22:01.619Z,2.83
2023-05-08T08:25:03.680Z,3.03
2023-05-08T08:28:06.769Z,3.03
2023-05-08T08:31:08.543Z,2.45
2023-05-08T08:34:10.557Z,2.97
2023-05-08T08:37:15.198Z,3.22
2023-05-08T08:43:20.096Z,3.88
2023-05-08T08:46:25.765Z,3.13
2023-05-08T08:49:31.843Z,3.30
2023-05-08T08:52:41.083Z,2.90
2023-05-08T08:55:45.887Z,3.03
2023-05-08T08:58:53.682Z,2.95
2023-05-08T09:01:58.699Z,2.85
2023-05-08T09:05:00.983Z,3.17
2023-05-08T09:08:02.993Z,3.10
2023-05-08T09:11:04.957Z,2.83
2023-05-08T09:14:08.764Z,3.20
2023-05-08T09:17:10.588Z,3.15
2023-05-08T09:20:14.886Z,3.00
2023-05-08T09:23:17.474Z,2.90
2023-05-08T09:26:27.718Z,2.67
2023-05-08T09:29:30.860Z,3.13
2023-05-08T09:32:34.093Z,2.88
2023-05-08T09:35:37.029Z,3.20
2023-05-08T09:38:40.638Z,3.00
2023-05-08T09:41:57.674Z,3.00
2023-05-08T09:45:02.383Z,2.65
2023-05-08T09:48:04.631Z,3.28
2023-05-08T09:51:07.312Z,3.03
2023-05-08T09:54:17.923Z,3.38
2023-05-08T09:57:19.944Z,3.05
2023-05-08T10:00:24.650Z,3.05
2023-05-08T10:03:46.635Z,3.10
2023-05-08T10:06:57.295Z,2.90
2023-05-08T10:10:00.641Z,3.13
2023-05-08T10:13:02.469Z,2.92
2023-05-08T10:16:07.743Z,3.13
2023-05-08T10:19:14.499Z,2.90
2023-05-08T10:22:19.009Z,3.00
2023-05-08T10:25:23.249Z,3.25
2023-05-08T10:28:36.924Z,2.90
2023-05-08T10:31:44.371Z,3.00
2023-05-08T10:34:53.639Z,3.08
2023-05-08T10:37:57.006Z,2.83
2023-05-08T10:41:01.314Z,3.47
2023-05-08T10:44:03.707Z,2.83
2023-05-08T10:47:16.655Z,3.15
2023-05-08T10:50:37.570Z,3.30
2023-05-08T10:53:44.215Z,3.15
2023-05-08T10:56:46.092Z,3.67
2023-05-08T10:59:47.848Z,3.30
2023-05-08T11:02:51.238Z,3.70
2023-05-08T11:05:55.184Z,4.10
2023-05-08T11:08:57.881Z,3.55
2023-05-08T11:12:15.982Z,3.50
2023-05-08T11:15:36.254Z,3.80
2023-05-08T11:19:17.514Z,4.03
2023-05-08T11:22:27.218Z,3.40
2023-05-08T11:25:43.400Z,3.58
2023-05-08T11:28:56.705Z,3.85
2023-05-08T11:31:58.605Z,3.25
2023-05-08T11:35:02.299Z,3.38
2023-05-08T11:38:36.094Z,3.20
2023-05-08T11:41:39.162Z,3.90
2023-05-08T11:44:41.116Z,3.05
2023-05-08T11:47:44.025Z,3.63
2023-05-08T11:50:47.192Z,3.13
2023-05-08T11:53:49.077Z,3.08
2023-05-08T11:56:56.967Z,3.45
2023-05-08T12:00:00.264Z,2.88
2023-05-08T12:03:07.271Z,2.70
2023-05-08T12:06:11.941Z,3.33
2023-05-08T12:09:15.416Z,3.08
2023-05-08T12:12:17.150Z,3.38
2023-05-08T12:15:18.996Z,2.65
2023-05-08T12:19:14.349Z,2.67
2023-05-08T12:22:16.419Z,2.65
2023-05-08T12:25:19.262Z,2.78
2023-05-08T12:28:21.403Z,2.70
2023-05-08T12:31:23.952Z,2.70
2023-05-08T12:34:27.538Z,2.92
2023-05-08T12:37:29.491Z,3.58
2023-05-08T12:40:32.764Z,6.10
2023-05-08T12:43:35.555Z,13.95
2023-05-08T12:46:45.701Z,4.45
2023-05-08T12:49:50.066Z,3.75
2023-05-08T12:55:56.107Z,3.75
2023-05-08T12:58:59.687Z,4.25
2023-05-08T13:02:01.769Z,4.28
2023-05-08T13:05:05.774Z,5.82
2023-05-08T13:08:10.789Z,4.35
2023-05-08T13:11:12.549Z,4.13
2023-05-08T13:14:14.384Z,4.65
2023-05-08T13:17:17.869Z,4.55
2023-05-08T13:20:21.256Z,4.47
2023-05-08T13:23:23.731Z,4.57
2023-05-08T13:26:26.282Z,4.80
2023-05-08T13:29:28.231Z,3.40
2023-05-08T13:32:30.156Z,2.72
2023-05-08T13:35:33.776Z,2.40
2023-05-08T13:38:35.710Z,2.92
2023-05-08T13:41:37.565Z,2.50
2023-05-08T13:44:39.392Z,2.72
2023-05-08T13:47:42.010Z,2.75
2023-05-08T13:50:45.468Z,3.08
2023-05-08T13:53:47.128Z,2.72
2023-05-08T13:56:49.830Z,2.95
2023-05-08T13:59:52.256Z,2.70
2023-05-08T14:02:54.159Z,2.80
2023-05-08T14:05:57.308Z,2.58
2023-05-08T14:08:59.048Z,2.35
2023-05-08T14:12:00.734Z,2.45
2023-05-08T14:15:04.535Z,2.70
2023-05-08T14:18:06.456Z,2.90
2023-05-08T14:21:09.747Z,2.67
2023-05-08T14:24:11.809Z,2.80
2023-05-08T14:27:13.794Z,2.33
2023-05-08T14:30:15.934Z,2.50
2023-05-08T14:33:19.357Z,2.45
2023-05-08T14:36:22.890Z,2.70
2023-05-08T14:39:24.652Z,2.90
2023-05-08T14:42:26.364Z,2.90
2023-05-08T14:45:48.291Z,2.60
2023-05-08T14:48:50.459Z,2.90
2023-05-08T14:51:53.866Z,2.50
2023-05-08T14:54:55.748Z,2.50
2023-05-08T14:57:58.120Z,3.13
2023-05-08T15:00:59.872Z,2.78
2023-05-08T15:04:01.983Z,2.40
2023-05-08T15:07:05.580Z,2.67
2023-05-08T15:10:08.132Z,2.80
2023-05-08T15:13:09.967Z,2.10
2023-05-08T15:16:11.833Z,2.25
2023-05-08T15:19:13.705Z,2.90
2023-05-08T15:22:17.775Z,2.35
2023-05-08T15:25:19.903Z,2.35
2023-05-08T15:28:21.576Z,2.50
2023-05-08T15:31:23.438Z,2.58
2023-05-08T15:34:29.066Z,2.50
2023-05-08T15:37:37.355Z,2.40
2023-05-08T15:40:42.377Z,2.70
2023-05-08T15:43:46.297Z,2.38
2023-05-08T15:46:48.055Z,2.60
2023-05-08T15:49:50.075Z,2.53
2023-05-08T15:52:53.098Z,2.35
2023-05-08T15:55:55.695Z,2.58
2023-05-08T15:58:57.432Z,2.25
2023-05-08T16:01:59.230Z,2.58
2023-05-08T16:05:00.873Z,2.40
2023-05-08T16:08:05.899Z,2.53
2023-05-08T16:11:31.401Z,2.67
2023-05-08T16:14:33.107Z,2.78
2023-05-08T16:17:35.161Z,3.05
2023-05-08T16:20:39.788Z,2.90
2023-05-08T16:23:43.668Z,2.63
2023-05-08T16:26:45.409Z,2.83
2023-05-08T16:29:47.309Z,3.33
2023-05-08T16:32:49.125Z,2.92
2023-05-08T16:35:51.325Z,2.55
2023-05-08T16:38:54.630Z,2.60
2023-05-08T16:41:56.491Z,2.38
2023-05-08T16:44:58.173Z,2.60
2023-05-08T16:48:00.277Z,5.57
2023-05-08T16:51:02.390Z,2.60
2023-05-08T16:54:06.346Z,2.58
2023-05-08T16:57:08.016Z,2.95
2023-05-08T17:00:10.896Z,2.47
2023-05-08T17:03:12.815Z,2.55
2023-05-08T17:06:14.551Z,2.47
2023-05-08T17:09:18.470Z,2.75
2023-05-08T17:12:20.771Z,2.65
2023-05-08T17:15:22.837Z,2.70
2023-05-08T17:18:24.756Z,2.67
2023-05-08T17:21:26.648Z,2.47
2023-05-08T17:24:30.955Z,2.42
2023-05-08T17:28:37.148Z,2.67
2023-05-08T17:31:38.948Z,2.90
2023-05-08T17:34:43.772Z,3.60
2023-05-08T17:37:45.968Z,2.60
2023-05-08T17:40:47.788Z,2.60
2023-05-08T17:43:52.328Z,2.58
2023-05-08T17:46:54.030Z,3.05
2023-05-08T17:49:56.047Z,2.60
2023-05-08T17:52:58.145Z,2.67
2023-05-08T17:56:00.610Z,2.75
2023-05-08T17:59:03.832Z,3.00
2023-05-08T18:02:06.125Z,3.55
2023-05-08T18:05:11.746Z,2.95
2023-05-08T18:08:13.848Z,2.80
2023-05-08T18:11:17.543Z,3.03
2023-05-08T18:14:20.565Z,3.08
2023-05-08T18:17:22.824Z,3.03
2023-05-08T18:20:24.820Z,3.20
2023-05-08T18:23:27.006Z,2.88
2023-05-08T18:26:29.139Z,3.03
2023-05-08T18:29:32.303Z,3.10
2023-05-08T18:32:35.362Z,2.90
2023-05-08T18:35:37.211Z,3.20
2023-05-08T18:38:42.532Z,3.17
2023-05-08T18:41:45.068Z,3.10
2023-05-08T18:44:48.703Z,3.30
2023-05-08T18:47:57.054Z,2.97
2023-05-08T18:50:59.029Z,3.28
2023-05-08T18:54:01.252Z,3.47
2023-05-08T18:57:03.999Z,3.65
2023-05-08T19:00:08.915Z,3.30
2023-05-08T19:03:11.106Z,3.22
2023-05-08T19:09:17.095Z,3.28
2023-05-08T19:12:19.188Z,3.28
2023-05-08T19:15:22.721Z,3.53
2023-05-08T19:18:24.658Z,3.20
2023-05-08T19:21:26.591Z,3.05
2023-05-08T19:24:29.934Z,2.85
2023-05-08T19:27:32.132Z,3.47
2023-05-08T19:30:35.316Z,3.60
2023-05-08T19:33:37.270Z,3.45
2023-05-08T19:36:39.071Z,4.20
2023-05-08T19:39:43.959Z,4.30
2023-05-08T19:42:46.037Z,3.55
2023-05-08T19:45:49.342Z,3.10
2023-05-08T19:48:51.285Z,3.70
2023-05-08T19:51:53.152Z,3.60
2023-05-08T19:54:56.692Z,3.78
2023-05-08T19:57:58.409Z,3.72
2023-05-08T20:01:01.795Z,4.00
2023-05-08T20:04:03.766Z,4.15
2023-05-08T20:07:06.252Z,3.80
2023-05-08T20:10:09.519Z,4.10
2023-05-08T20:13:11.483Z,4.30
2023-05-08T20:16:14.953Z,3.80
2023-05-08T20:19:18.867Z,3.60
2023-05-08T20:22:21.544Z,3.88
2023-05-08T20:25:23.794Z,3.92
2023-05-08T20:28:26.094Z,3.88
2023-05-08T20:31:30.757Z,3.85
2023-05-08T20:34:32.869Z,3.10
2023-05-08T20:37:34.661Z,3.50
2023-05-08T20:40:36.806Z,3.85
2023-05-08T20:43:38.681Z,3.10
2023-05-08T20:46:41.780Z,3.67
2023-05-08T20:53:05.613Z,3.38
2023-05-08T20:56:07.838Z,3.80
2023-05-08T20:59:09.687Z,3.38
2023-05-08T21:02:12.807Z,3.75
2023-05-08T21:05:14.663Z,3.53
2023-05-08T21:08:16.686Z,3.75
2023-05-08T21:11:18.447Z,3.42
2023-05-08T21:14:20.444Z,3.67
2023-05-08T21:17:23.893Z,3.58
2023-05-08T21:20:25.711Z,3.67
2023-05-08T21:23:29.732Z,3.65
2023-05-08T21:26:31.537Z,3.45
2023-05-08T21:29:33.436Z,3.90
2023-05-08T21:32:36.521Z,3.50
2023-05-08T21:35:38.300Z,3.42
2023-05-08T21:38:40.886Z,3.10
2023-05-08T21:41:43.335Z,3.90
2023-05-08T21:44:45.112Z,3.80
2023-05-08T21:47:48.412Z,3.63
2023-05-08T21:50:50.219Z,3.58
2023-05-08T21:53:51.953Z,4.25
2023-05-08T21:56:53.762Z,3.53
2023-05-08T21:59:55.594Z,3.40
2023-05-08T22:02:59.043Z,3.55
2023-05-08T22:06:00.834Z,3.28
2023-05-08T22:09:03.151Z,3.20
2023-05-08T22:12:06.402Z,3.00
2023-05-08T22:15:18.050Z,3.92
2023-05-08T22:18:25.124Z,2.95
2023-05-08T22:21:29.553Z,3.00
2023-05-08T22:24:31.397Z,3.33
2023-05-08T22:27:33.265Z,4.07
2023-05-08T22:30:35.000Z,3.60
2023-05-08T22:33:38.022Z,3.72
2023-05-08T22:36:39.971Z,3.58
2023-05-08T22:39:41.806Z,3.70
2023-05-08T22:42:47.243Z,3.60
2023-05-08T22:45:49.088Z,4.20
2023-05-08T22:48:54.916Z,4.05
2023-05-08T22:51:56.955Z,3.88
2023-05-08T22:54:58.596Z,3.65
2023-05-08T22:58:00.696Z,3.30
2023-05-08T23:01:02.622Z,3.42
2023-05-08T23:04:05.938Z,3.50
2023-05-08T23:07:07.912Z,4.00
2023-05-08T23:10:10.957Z,3.53
2023-05-08T23:13:12.907Z,3.92
2023-05-08T23:16:14.693Z,3.50
2023-05-08T23:19:17.856Z,3.50
2023-05-08T23:22:19.495Z,3.50
2023-05-08T23:25:21.231Z,3.50
2023-05-08T23:28:23.194Z,3.92
2023-05-08T23:31:25.220Z,3.60
2023-05-08T23:34:28.395Z,3.60
2023-05-08T23:37:30.102Z,4.13
2023-05-08T23:40:31.784Z,3.80
2023-05-08T23:43:33.589Z,3.42
2023-05-08T23:46:35.464Z,3.72
2023-05-08T23:49:38.675Z,3.47
2023-05-08T23:52:41.337Z,3.30
2023-05-08T23:55:43.082Z,3.05
2023-05-08T23:58:44.882Z,3.50
